createdAt,value
2018-03-25T00:00:54.008Z,10.49
2018-03-25T00:03:21.472Z,10.87
2018-03-25T00:05:48.934Z,10.66
2018-03-25T00:08:16.774Z,10.69
2018-03-25T00:10:44.241Z,10.92
2018-03-25T00:13:11.702Z,10.78
2018-03-25T00:15:39.706Z,10.46
2018-03-25T00:18:07.165Z,10.65
2018-03-25T00:20:34.637Z,10.03
2018-03-25T00:23:02.377Z,9.81
2018-03-25T00:25:29.836Z,9.91
2018-03-25T00:27:57.308Z,10.33
2018-03-25T00:30:25.062Z,10.28
2018-03-25T00:32:52.530Z,10.08
2018-03-25T00:35:19.980Z,9.95
2018-03-25T00:37:47.750Z,9.94
2018-03-25T00:40:15.205Z,10.24
2018-03-25T00:42:42.673Z,9.89
2018-03-25T00:45:10.432Z,10.03
2018-03-25T00:47:37.897Z,9.83
2018-03-25T00:50:05.349Z,9.89
2018-03-25T00:52:33.056Z,9.92
2018-03-25T00:55:00.537Z,9.61
2018-03-25T00:57:28.412Z,9.97
2018-03-25T00:59:56.417Z,9.47
2018-03-25T01:02:23.876Z,9.71
2018-03-25T01:04:51.333Z,9.21
2018-03-25T01:07:19.116Z,9.48
2018-03-25T01:09:46.579Z,9.74
2018-03-25T01:12:14.043Z,9.27
2018-03-25T01:14:41.802Z,9.48
2018-03-25T01:17:09.262Z,9.49
2018-03-25T01:19:36.731Z,9.61
2018-03-25T01:22:04.530Z,9.45
2018-03-25T01:24:32.002Z,9.49
2018-03-25T01:26:59.462Z,9.13
2018-03-25T01:29:27.482Z,9.48
2018-03-25T01:31:54.941Z,9.49
2018-03-25T01:34:22.402Z,9.27
2018-03-25T01:36:50.474Z,9.18
2018-03-25T01:39:17.938Z,9.21
2018-03-25T01:41:45.393Z,9.19
2018-03-25T01:44:13.104Z,9.24
2018-03-25T01:46:40.626Z,9.05
2018-03-25T01:49:08.099Z,9.29
2018-03-25T01:51:35.860Z,9.25
2018-03-25T01:54:03.320Z,8.88
2018-03-25T01:56:30.776Z,9.07
2018-03-25T01:58:59.355Z,9.00
2018-03-25T02:01:26.816Z,8.85
2018-03-25T02:03:54.406Z,8.90
2018-03-25T02:06:22.157Z,8.89
2018-03-25T02:08:49.970Z,8.57
2018-03-25T02:11:17.440Z,8.80
2018-03-25T02:13:45.454Z,8.45
2018-03-25T02:16:12.901Z,8.64
2018-03-25T02:18:40.356Z,8.72
2018-03-25T02:21:08.128Z,8.76
2018-03-25T02:23:35.586Z,8.29
2018-03-25T02:26:03.046Z,8.50
2018-03-25T02:28:31.110Z,8.32
2018-03-25T02:30:58.569Z,8.54
2018-03-25T02:33:26.026Z,8.31
2018-03-25T02:35:53.746Z,8.47
2018-03-25T02:38:21.215Z,8.36
2018-03-25T02:40:49.014Z,8.39
2018-03-25T02:43:16.605Z,8.60
2018-03-25T02:45:44.072Z,8.37
2018-03-25T02:48:11.532Z,8.25
2018-03-25T02:50:39.197Z,8.28
2018-03-25T02:53:06.673Z,8.30
2018-03-25T02:55:34.128Z,8.38
2018-03-25T02:58:01.909Z,8.40
2018-03-25T03:00:30.022Z,8.22
2018-03-25T03:02:57.484Z,8.05
2018-03-25T03:05:25.181Z,8.15
2018-03-25T03:07:52.652Z,7.83
2018-03-25T03:10:20.114Z,8.07
2018-03-25T03:12:47.857Z,8.15
2018-03-25T03:15:15.314Z,7.95
2018-03-25T03:17:42.769Z,7.90
2018-03-25T03:20:10.552Z,7.80
2018-03-25T03:22:38.010Z,7.91
2018-03-25T03:25:05.482Z,7.59
2018-03-25T03:27:33.183Z,7.51
2018-03-25T03:30:00.657Z,7.39
2018-03-25T03:32:28.134Z,7.22
2018-03-25T03:34:55.935Z,7.65
2018-03-25T03:37:23.393Z,7.56
2018-03-25T03:39:50.865Z,7.71
2018-03-25T03:42:18.456Z,7.20
2018-03-25T03:44:45.921Z,7.56
2018-03-25T03:47:13.377Z,7.48
2018-03-25T03:49:41.165Z,7.56
2018-03-25T03:52:08.626Z,7.14
2018-03-25T03:54:36.096Z,7.39
2018-03-25T03:57:03.990Z,7.50
2018-03-25T03:59:31.460Z,7.43
2018-03-25T04:01:59.608Z,7.52
2018-03-25T04:04:27.297Z,7.75
2018-03-25T04:06:54.749Z,7.37
2018-03-25T04:09:22.221Z,7.49
2018-03-25T04:11:49.981Z,7.67
2018-03-25T04:14:17.726Z,7.70
2018-03-25T04:16:45.190Z,7.74
2018-03-25T04:19:12.980Z,7.55
2018-03-25T04:21:40.447Z,7.58
2018-03-25T04:24:07.911Z,7.95
2018-03-25T04:26:35.659Z,7.43
2018-03-25T04:29:03.122Z,7.56
2018-03-25T04:31:30.581Z,7.28
2018-03-25T04:33:58.343Z,7.14
2018-03-25T04:36:25.814Z,7.54
2018-03-25T04:38:53.286Z,7.54
2018-03-25T04:41:21.088Z,7.18
2018-03-25T04:43:48.549Z,7.44
2018-03-25T04:46:16.021Z,7.15
2018-03-25T04:48:44.030Z,7.30
2018-03-25T04:51:12.547Z,7.17
2018-03-25T04:53:40.011Z,7.09
2018-03-25T04:56:07.950Z,7.38
2018-03-25T04:58:35.414Z,7.60
2018-03-25T05:01:02.874Z,7.74
2018-03-25T05:03:31.253Z,7.87
2018-03-25T05:05:58.713Z,7.56
2018-03-25T05:08:26.168Z,7.45
2018-03-25T05:10:53.918Z,7.39
2018-03-25T05:13:21.382Z,7.47
2018-03-25T05:15:48.849Z,7.22
2018-03-25T05:18:16.665Z,7.31
2018-03-25T05:20:44.133Z,7.32
2018-03-25T05:23:11.597Z,7.36
2018-03-25T05:25:39.458Z,7.64
2018-03-25T05:28:06.937Z,7.56
2018-03-25T05:30:34.395Z,7.47
2018-03-25T05:33:02.293Z,7.59
2018-03-25T05:35:29.746Z,8.00
2018-03-25T05:37:57.212Z,7.79
2018-03-25T05:40:24.981Z,7.41
2018-03-25T05:42:52.433Z,7.38
2018-03-25T05:45:19.891Z,8.17
2018-03-25T05:47:47.616Z,8.12
2018-03-25T05:50:15.078Z,8.07
2018-03-25T05:52:42.549Z,7.57
2018-03-25T05:55:10.360Z,8.23
2018-03-25T05:57:37.837Z,7.77
2018-03-25T06:00:05.291Z,8.30
2018-03-25T06:02:33.361Z,8.08
2018-03-25T06:05:00.887Z,8.04
2018-03-25T06:07:28.371Z,8.20
2018-03-25T06:09:56.368Z,7.96
2018-03-25T06:12:23.829Z,7.95
2018-03-25T06:14:51.286Z,7.94
2018-03-25T06:17:19.047Z,8.12
2018-03-25T06:19:46.510Z,8.32
2018-03-25T06:22:13.969Z,7.92
2018-03-25T06:24:41.838Z,8.80
2018-03-25T06:27:09.289Z,7.85
2018-03-25T06:29:36.758Z,8.30
2018-03-25T06:32:04.624Z,8.10
2018-03-25T06:34:32.085Z,8.63
2018-03-25T06:36:59.537Z,8.20
2018-03-25T06:39:27.249Z,8.50
2018-03-25T06:41:54.704Z,8.27
2018-03-25T06:44:22.177Z,9.10
2018-03-25T06:46:50.073Z,8.74
2018-03-25T06:49:17.534Z,9.03
2018-03-25T06:51:44.985Z,9.35
2018-03-25T06:54:13.114Z,9.25
2018-03-25T06:56:40.631Z,9.63
2018-03-25T06:59:08.099Z,9.43
2018-03-25T07:01:35.823Z,9.34
2018-03-25T07:04:03.278Z,10.19
2018-03-25T07:06:31.408Z,9.99
2018-03-25T07:08:59.139Z,10.28
2018-03-25T07:11:27.081Z,9.52
2018-03-25T07:13:54.548Z,9.30
2018-03-25T07:16:22.325Z,9.80
2018-03-25T07:18:49.796Z,9.85
2018-03-25T07:21:17.283Z,9.48
2018-03-25T07:23:46.016Z,9.59
2018-03-25T07:26:13.497Z,9.26
2018-03-25T07:28:40.954Z,9.33
2018-03-25T07:31:09.037Z,9.53
2018-03-25T07:33:36.499Z,10.17
2018-03-25T07:36:03.963Z,11.19
2018-03-25T07:38:31.980Z,10.05
2018-03-25T07:40:59.437Z,9.40
2018-03-25T07:43:26.909Z,10.16
2018-03-25T07:45:54.665Z,10.86
2018-03-25T07:48:22.126Z,10.02
2018-03-25T07:50:49.593Z,10.78
2018-03-25T07:53:17.690Z,10.61
2018-03-25T07:55:45.170Z,10.42
2018-03-25T07:58:12.634Z,10.78
2018-03-25T08:00:40.340Z,10.97
2018-03-25T08:03:07.805Z,11.25
2018-03-25T08:05:35.284Z,10.99
2018-03-25T08:08:03.636Z,11.30
2018-03-25T08:10:31.098Z,11.44
2018-03-25T08:12:58.743Z,10.91
2018-03-25T08:15:26.629Z,11.33
2018-03-25T08:17:54.101Z,10.59
2018-03-25T08:20:21.567Z,10.12
2018-03-25T08:22:49.332Z,10.51
2018-03-25T08:25:16.793Z,10.97
2018-03-25T08:27:44.266Z,10.94
2018-03-25T08:30:12.366Z,11.38
2018-03-25T08:32:39.831Z,10.47
2018-03-25T08:35:07.293Z,10.55
2018-03-25T08:37:34.892Z,10.44
2018-03-25T08:40:02.365Z,11.09
2018-03-25T08:42:29.845Z,10.97
2018-03-25T08:44:57.704Z,10.89
2018-03-25T08:47:25.158Z,11.15
2018-03-25T08:49:52.621Z,11.28
2018-03-25T08:52:20.390Z,11.25
2018-03-25T08:54:47.861Z,11.53
2018-03-25T08:57:15.333Z,10.60
2018-03-25T08:59:43.373Z,11.18
2018-03-25T09:02:10.832Z,11.68
2018-03-25T09:04:38.297Z,11.36
2018-03-25T09:07:05.893Z,12.36
2018-03-25T09:09:33.912Z,12.70
2018-03-25T09:12:01.424Z,12.78
2018-03-25T09:14:29.382Z,12.33
2018-03-25T09:16:56.849Z,12.33
2018-03-25T09:19:24.337Z,12.76
2018-03-25T09:21:52.063Z,12.57
2018-03-25T09:24:19.530Z,13.03
2018-03-25T09:26:47.226Z,13.29
2018-03-25T09:29:15.041Z,12.77
2018-03-25T09:31:43.369Z,11.75
2018-03-25T09:34:10.837Z,11.67
2018-03-25T09:36:38.672Z,13.03
2018-03-25T09:39:06.128Z,13.69
2018-03-25T09:41:33.593Z,13.44
2018-03-25T09:44:01.337Z,13.44
2018-03-25T09:46:28.802Z,11.47
2018-03-25T09:48:56.269Z,14.01
2018-03-25T09:51:24.033Z,14.53
2018-03-25T09:53:51.513Z,14.33
2018-03-25T09:56:18.980Z,13.42
2018-03-25T09:58:46.720Z,14.32
2018-03-25T10:01:14.970Z,14.31
2018-03-25T10:03:42.441Z,14.27
2018-03-25T10:06:10.374Z,13.94
2018-03-25T10:08:37.841Z,14.13
2018-03-25T10:11:05.836Z,14.85
2018-03-25T10:13:33.621Z,14.68
2018-03-25T10:16:01.077Z,15.06
2018-03-25T10:18:28.536Z,15.23
2018-03-25T10:20:56.624Z,15.97
2018-03-25T10:23:24.090Z,14.93
2018-03-25T10:25:51.555Z,14.35
2018-03-25T10:28:19.305Z,14.50
2018-03-25T10:30:46.774Z,14.25
2018-03-25T10:33:14.232Z,14.67
2018-03-25T10:35:42.000Z,15.99
2018-03-25T10:38:09.470Z,15.66
2018-03-25T10:40:36.940Z,15.89
2018-03-25T10:43:04.675Z,15.98
2018-03-25T10:45:32.132Z,17.01
2018-03-25T10:47:59.602Z,17.34
2018-03-25T10:50:27.365Z,17.55
2018-03-25T10:52:54.826Z,17.20
2018-03-25T10:55:22.293Z,17.06
2018-03-25T10:57:50.062Z,15.58
2018-03-25T11:00:17.540Z,15.86
2018-03-25T11:02:45.000Z,17.43
2018-03-25T11:05:13.087Z,17.73
2018-03-25T11:07:40.600Z,17.20
2018-03-25T11:10:08.062Z,17.77
2018-03-25T11:12:36.069Z,17.68
2018-03-25T11:15:03.544Z,17.12
2018-03-25T11:17:31.017Z,17.30
2018-03-25T11:19:59.057Z,16.47
2018-03-25T11:22:26.541Z,17.37
2018-03-25T11:24:54.016Z,17.69
2018-03-25T11:27:22.035Z,17.30
2018-03-25T11:29:49.523Z,17.42
2018-03-25T11:32:17.003Z,17.98
2018-03-25T11:34:45.053Z,19.46
2018-03-25T11:37:12.529Z,20.02
2018-03-25T11:39:40.006Z,19.70
2018-03-25T11:42:07.722Z,19.62
2018-03-25T11:44:35.215Z,19.32
2018-03-25T11:47:02.698Z,21.47
2018-03-25T11:49:30.412Z,22.15
2018-03-25T11:51:57.878Z,21.07
2018-03-25T11:54:25.342Z,21.98
2018-03-25T11:56:53.094Z,21.98
2018-03-25T11:59:20.570Z,23.39
2018-03-25T12:01:48.051Z,21.32
2018-03-25T12:04:15.797Z,20.72
2018-03-25T12:06:43.260Z,23.00
2018-03-25T12:09:10.730Z,22.00
2018-03-25T12:11:38.343Z,24.25
2018-03-25T12:14:06.313Z,24.75
2018-03-25T12:16:33.799Z,25.37
2018-03-25T12:19:01.849Z,25.94
2018-03-25T12:21:29.317Z,25.75
2018-03-25T12:23:56.777Z,22.97
2018-03-25T12:26:24.763Z,22.50
2018-03-25T12:28:52.236Z,24.94
2018-03-25T12:31:19.709Z,23.98
2018-03-25T12:33:47.453Z,25.70
2018-03-25T12:36:14.911Z,24.74
2018-03-25T12:38:42.407Z,25.84
2018-03-25T12:41:10.130Z,25.23
2018-03-25T12:43:37.612Z,26.66
2018-03-25T12:46:05.081Z,25.90
2018-03-25T12:48:33.140Z,26.69
2018-03-25T12:51:00.603Z,26.63
2018-03-25T12:53:28.086Z,25.99
2018-03-25T12:55:55.816Z,24.18
2018-03-25T12:58:23.282Z,24.42
2018-03-25T13:00:50.750Z,25.32
2018-03-25T13:03:18.818Z,25.02
2018-03-25T13:05:46.276Z,24.43
2018-03-25T13:08:13.740Z,24.32
2018-03-25T13:10:41.493Z,23.94
2018-03-25T13:13:08.962Z,23.28
2018-03-25T13:15:38.641Z,24.50
2018-03-25T13:18:06.492Z,24.58
2018-03-25T13:20:33.961Z,24.98
2018-03-25T13:23:01.421Z,26.34
2018-03-25T13:25:29.346Z,25.33
2018-03-25T13:27:56.793Z,23.47
2018-03-25T13:30:24.262Z,25.06
2018-03-25T13:32:52.001Z,23.93
2018-03-25T13:35:19.468Z,25.89
2018-03-25T13:37:46.962Z,24.70
2018-03-25T13:40:14.991Z,25.87
2018-03-25T13:42:42.459Z,24.96
2018-03-25T13:45:09.918Z,26.93
2018-03-25T13:47:37.659Z,27.24
2018-03-25T13:50:05.221Z,25.89
2018-03-25T13:52:32.713Z,26.54
2018-03-25T13:55:00.390Z,25.88
2018-03-25T13:57:27.872Z,28.12
2018-03-25T13:59:55.365Z,28.58
2018-03-25T14:02:23.092Z,26.16
2018-03-25T14:04:50.628Z,27.81
2018-03-25T14:07:18.105Z,25.49
2018-03-25T14:09:46.077Z,26.62
2018-03-25T14:12:13.560Z,26.38
2018-03-25T14:14:41.654Z,27.18
2018-03-25T14:17:09.901Z,24.71
2018-03-25T14:19:37.393Z,25.09
2018-03-25T14:22:04.862Z,23.34
2018-03-25T14:24:32.696Z,22.72
2018-03-25T14:27:00.182Z,24.85
2018-03-25T14:29:27.657Z,26.72
2018-03-25T14:31:55.329Z,27.25
2018-03-25T14:34:22.798Z,27.75
2018-03-25T14:36:50.254Z,25.69
2018-03-25T14:39:17.893Z,27.08
2018-03-25T14:41:45.358Z,26.80
2018-03-25T14:44:12.822Z,25.74
2018-03-25T14:46:40.731Z,24.53
2018-03-25T14:49:08.365Z,26.11
2018-03-25T14:51:35.867Z,27.96
2018-03-25T14:54:03.744Z,28.10
2018-03-25T14:56:31.285Z,25.94
2018-03-25T14:58:58.744Z,25.17
2018-03-25T15:01:26.742Z,28.41
2018-03-25T15:03:54.227Z,27.93
2018-03-25T15:06:21.714Z,28.92
2018-03-25T15:08:49.427Z,27.19
2018-03-25T15:11:16.903Z,28.43
2018-03-25T15:13:44.411Z,26.36
2018-03-25T15:16:12.109Z,26.77
2018-03-25T15:18:41.494Z,27.15
2018-03-25T15:21:08.970Z,27.54
2018-03-25T15:23:36.929Z,27.67
2018-03-25T15:26:04.403Z,27.69
2018-03-25T15:28:31.907Z,25.93
2018-03-25T15:30:59.926Z,24.67
2018-03-25T15:33:27.388Z,24.75
2018-03-25T15:35:55.737Z,23.32
2018-03-25T15:38:23.537Z,23.57
2018-03-25T15:40:51.013Z,24.26
2018-03-25T15:43:18.473Z,26.78
2018-03-25T15:45:46.088Z,26.80
2018-03-25T15:48:13.542Z,26.60
2018-03-25T15:50:41.009Z,25.81
2018-03-25T15:53:08.909Z,25.88
2018-03-25T15:55:36.381Z,24.69
2018-03-25T15:58:03.846Z,25.16
2018-03-25T16:00:31.639Z,24.89
2018-03-25T16:02:59.106Z,25.89
2018-03-25T16:05:26.581Z,24.69
2018-03-25T16:07:54.289Z,24.57
2018-03-25T16:10:21.753Z,24.01
2018-03-25T16:12:49.218Z,25.12
2018-03-25T16:15:16.977Z,24.68
2018-03-25T16:17:44.438Z,24.50
2018-03-25T16:20:13.681Z,25.14
2018-03-25T16:22:42.079Z,23.48
2018-03-25T16:25:09.861Z,24.60
2018-03-25T16:27:37.421Z,24.15
2018-03-25T16:30:05.164Z,24.02
2018-03-25T16:32:32.638Z,23.46
2018-03-25T16:35:00.107Z,24.09
2018-03-25T16:37:27.815Z,22.83
2018-03-25T16:39:55.279Z,22.59
2018-03-25T16:42:22.746Z,23.24
2018-03-25T16:44:50.487Z,23.20
2018-03-25T16:47:17.966Z,23.34
2018-03-25T16:49:45.454Z,23.09
2018-03-25T16:52:13.223Z,22.63
2018-03-25T16:54:40.689Z,21.89
2018-03-25T16:57:08.153Z,20.99
2018-03-25T16:59:35.869Z,20.84
2018-03-25T17:02:03.333Z,20.81
2018-03-25T17:04:31.887Z,19.77
2018-03-25T17:06:59.794Z,19.36
2018-03-25T17:09:27.259Z,19.26
2018-03-25T17:11:54.740Z,18.84
2018-03-25T17:14:22.569Z,18.48
2018-03-25T17:16:50.357Z,17.37
2018-03-25T17:19:18.057Z,17.28
2018-03-25T17:21:46.798Z,16.90
2018-03-25T17:24:14.306Z,16.89
2018-03-25T17:26:41.814Z,16.85
2018-03-25T17:29:09.692Z,16.17
2018-03-25T17:31:37.158Z,15.66
2018-03-25T17:34:04.625Z,16.20
2018-03-25T17:36:32.426Z,16.18
2018-03-25T17:39:00.091Z,16.01
2018-03-25T17:41:27.612Z,15.88
2018-03-25T17:43:55.677Z,15.50
2018-03-25T17:46:23.147Z,15.24
2018-03-25T17:48:50.610Z,15.08
2018-03-25T17:51:18.357Z,15.64
2018-03-25T17:53:45.830Z,15.22
2018-03-25T17:56:13.302Z,14.84
2018-03-25T17:58:41.051Z,15.33
2018-03-25T18:01:08.524Z,15.61
2018-03-25T18:03:36.004Z,15.29
2018-03-25T18:06:03.740Z,14.77
2018-03-25T18:08:31.206Z,14.78
2018-03-25T18:10:58.697Z,15.12
2018-03-25T18:13:26.745Z,14.18
2018-03-25T18:15:54.586Z,14.52
2018-03-25T18:18:22.073Z,14.37
2018-03-25T18:20:56.306Z,14.36
2018-03-25T18:23:17.881Z,14.04
2018-03-25T18:25:45.628Z,14.29
2018-03-25T18:28:13.645Z,14.08
2018-03-25T18:30:41.126Z,14.08
2018-03-25T18:33:08.588Z,13.94
2018-03-25T18:35:36.352Z,13.65
2018-03-25T18:38:03.817Z,13.42
2018-03-25T18:40:31.288Z,13.63
2018-03-25T18:42:59.101Z,14.14
2018-03-25T18:45:26.570Z,13.72
2018-03-25T18:47:54.053Z,13.33
2018-03-25T18:50:22.006Z,13.53
2018-03-25T18:52:49.479Z,13.17
2018-03-25T18:55:16.972Z,13.19
2018-03-25T18:57:45.051Z,12.93
2018-03-25T19:00:12.548Z,13.05
2018-03-25T19:02:40.050Z,12.49
2018-03-25T19:05:07.994Z,13.20
2018-03-25T19:07:35.449Z,13.52
2018-03-25T19:10:02.909Z,12.87
2018-03-25T19:12:30.614Z,13.12
2018-03-25T19:14:58.088Z,12.85
2018-03-25T19:17:25.552Z,12.50
2018-03-25T19:19:53.378Z,12.13
2018-03-25T19:22:20.841Z,12.10
2018-03-25T19:24:48.411Z,11.04
2018-03-25T19:27:16.368Z,12.19
2018-03-25T19:29:43.846Z,12.24
2018-03-25T19:32:11.361Z,12.50
2018-03-25T19:34:39.062Z,12.65
2018-03-25T19:37:06.525Z,12.60
2018-03-25T19:39:33.993Z,12.39
2018-03-25T19:42:01.748Z,12.40
2018-03-25T19:44:29.258Z,12.19
2018-03-25T19:46:56.723Z,11.89
2018-03-25T19:49:24.749Z,12.14
2018-03-25T19:51:52.209Z,12.31
2018-03-25T19:54:19.684Z,12.11
2018-03-25T19:56:47.417Z,12.11
2018-03-25T19:59:14.877Z,12.24
2018-03-25T20:01:42.338Z,12.64
2018-03-25T20:04:10.114Z,12.45
2018-03-25T20:06:37.584Z,12.65
2018-03-25T20:09:05.054Z,12.41
2018-03-25T20:11:32.774Z,12.30
2018-03-25T20:14:00.277Z,12.45
2018-03-25T20:16:27.754Z,11.79
2018-03-25T20:18:55.501Z,11.73
2018-03-25T20:21:22.965Z,12.21
2018-03-25T20:23:50.453Z,11.80
2018-03-25T20:26:18.476Z,11.90
2018-03-25T20:28:45.948Z,11.73
2018-03-25T20:31:13.413Z,12.02
2018-03-25T20:33:41.164Z,12.19
2018-03-25T20:36:08.651Z,11.96
2018-03-25T20:38:36.176Z,12.05
2018-03-25T20:41:03.876Z,11.87
2018-03-25T20:43:31.633Z,11.55
2018-03-25T20:45:59.107Z,11.49
2018-03-25T20:48:26.853Z,11.25
2018-03-25T20:50:55.377Z,11.89
2018-03-25T20:53:22.843Z,11.51
2018-03-25T20:55:50.762Z,11.72
2018-03-25T20:58:18.229Z,11.49
2018-03-25T21:00:45.694Z,11.63
2018-03-25T21:03:13.463Z,11.42
2018-03-25T21:05:40.923Z,11.04
2018-03-25T21:08:08.397Z,11.28
2018-03-25T21:10:36.422Z,11.53
2018-03-25T21:13:03.885Z,11.42
2018-03-25T21:15:31.347Z,11.40
2018-03-25T21:18:00.052Z,11.63
2018-03-25T21:20:27.508Z,10.83
2018-03-25T21:22:54.968Z,10.83
2018-03-25T21:25:22.739Z,10.75
2018-03-25T21:27:51.520Z,11.12
2018-03-25T21:30:18.980Z,10.87
2018-03-25T21:32:46.997Z,11.10
2018-03-25T21:35:14.476Z,10.51
2018-03-25T21:37:41.932Z,10.56
2018-03-25T21:40:09.973Z,9.79
2018-03-25T21:42:37.429Z,9.40
2018-03-25T21:45:04.881Z,9.26
2018-03-25T21:47:32.644Z,9.32
2018-03-25T21:50:00.106Z,9.00
2018-03-25T21:52:27.583Z,8.88
2018-03-25T21:54:55.336Z,9.00
2018-03-25T21:57:22.797Z,9.04
2018-03-25T21:59:50.258Z,8.82
2018-03-25T22:02:18.340Z,8.96
2018-03-25T22:04:45.796Z,8.82
2018-03-25T22:07:13.261Z,9.14
2018-03-25T22:09:40.969Z,9.05
2018-03-25T22:12:08.429Z,8.92
2018-03-25T22:14:35.890Z,9.06
2018-03-25T22:17:03.711Z,8.87
2018-03-25T22:19:31.224Z,8.86
2018-03-25T22:21:58.636Z,8.70
2018-03-25T22:24:26.385Z,8.70
2018-03-25T22:26:53.849Z,8.61
2018-03-25T22:29:21.917Z,8.85
2018-03-25T22:31:49.694Z,8.76
2018-03-25T22:34:17.170Z,8.76
2018-03-25T22:36:44.638Z,8.83
2018-03-25T22:39:12.383Z,8.63
2018-03-25T22:41:39.841Z,8.85
2018-03-25T22:44:08.356Z,8.59
2018-03-25T22:46:36.296Z,8.64
2018-03-25T22:49:03.757Z,8.43
2018-03-25T22:51:31.222Z,8.73
2018-03-25T22:53:59.038Z,8.76
2018-03-25T22:56:26.462Z,8.34
2018-03-25T22:58:54.133Z,8.37
2018-03-25T23:01:21.919Z,8.15
2018-03-25T23:03:49.379Z,8.25
2018-03-25T23:06:16.839Z,8.65
2018-03-25T23:08:44.614Z,8.26
2018-03-25T23:11:12.071Z,8.44
2018-03-25T23:13:39.537Z,8.06
2018-03-25T23:16:07.343Z,8.39
2018-03-25T23:18:34.801Z,8.28
2018-03-25T23:21:02.253Z,8.46
2018-03-25T23:23:30.033Z,8.24
2018-03-25T23:25:57.493Z,8.22
2018-03-25T23:28:24.955Z,7.87
2018-03-25T23:30:53.342Z,7.77
2018-03-25T23:33:20.801Z,8.08
2018-03-25T23:35:48.261Z,8.02
2018-03-25T23:38:16.023Z,7.59
2018-03-25T23:40:43.481Z,7.69
2018-03-25T23:43:10.940Z,8.14
2018-03-25T23:45:38.711Z,8.39
2018-03-25T23:48:06.182Z,8.45
2018-03-25T23:50:33.641Z,8.25
2018-03-25T23:53:01.403Z,8.05
2018-03-25T23:55:28.865Z,8.03
2018-03-25T23:57:56.328Z,8.14
